Time;durP1;ratioP1;P1;durP2;ratioP2;P2;SDS_P1;SDS_P2;PMS_P1;PMS_P2;Temp;Humidity;BMP_temperature;BMP_pressure;BME280_temperature;BME280_humidity;BME280_pressure;Samples;Min_cycle;Max_cycle;Signal;HPM_P1;HPM_P2
2022/10/28 03:45:10;;;;;;;14.25;12.88;;;16.40;99.90;;;;;;4587174;19;20018;-27
2022/10/28 03:46:42;;;;;;;;;;;16.40;99.90;;;;;;4587975;19;20019;-27
2022/10/28 03:48:14;;;;;;;14.98;13.40;;;16.40;99.90;;;;;;4587598;19;19929;-27
2022/10/28 03:49:47;;;;;;;15.18;13.68;;;16.40;99.90;;;;;;4589365;19;20003;-27
2022/10/28 03:51:19;;;;;;;14.52;13.13;;;16.40;99.90;;;;;;4589359;19;20026;-27
2022/10/28 03:52:51;;;;;;;15.32;13.73;;;16.40;99.90;;;;;;4589983;19;20009;-27
2022/10/28 03:54:22;;;;;;;16.40;14.70;;;16.40;99.90;;;;;;4589288;19;20074;-27
2022/10/28 03:55:55;;;;;;;15.45;13.90;;;16.40;99.90;;;;;;4589151;19;20029;-27
2022/10/28 03:57:29;;;;;;;16.23;14.63;;;16.40;99.90;;;;;;4589638;19;20007;-27
2022/10/28 03:59:02;;;;;;;16.10;14.40;;;16.40;99.90;;;;;;4589572;19;19998;-27
2022/10/28 04:00:34;;;;;;;16.23;14.68;;;16.50;99.90;;;;;;4588587;19;20087;-27
2022/10/28 04:02:07;;;;;;;16.88;15.18;;;16.50;99.90;;;;;;4589422;19;20011;-27
2022/10/28 04:03:38;;;;;;;15.52;13.93;;;16.50;99.90;;;;;;4589367;19;20448;-27
2022/10/28 04:05:09;;;;;;;16.05;14.35;;;16.50;99.90;;;;;;4589496;19;20010;-27
2022/10/28 04:06:40;;;;;;;15.75;14.25;;;16.60;99.90;;;;;;4588050;19;20013;-27
2022/10/28 04:08:11;;;;;;;16.58;15.00;;;16.60;99.90;;;;;;4589040;19;20082;-27
2022/10/28 04:09:43;;;;;;;;;;;16.60;99.90;;;;;;4590438;19;20441;-27
2022/10/28 04:27:27;;;;;;;18.83;16.83;;;16.40;99.90;;;;;;4592334;19;19989;-27
2022/10/28 04:28:59;;;;;;;18.17;16.27;;;16.40;99.90;;;;;;4593424;19;20031;-27
2022/10/28 04:30:30;;;;;;;17.05;15.35;;;16.40;99.90;;;;;;4593869;19;20015;-27
2022/10/28 04:32:01;;;;;;;16.45;14.60;;;16.40;99.90;;;;;;4593518;19;20054;-27
2022/10/28 04:33:47;;;;;;;16.20;14.60;;;16.50;99.90;;;;;;4592939;19;19994;-27
2022/10/28 04:35:18;;;;;;;18.10;16.20;;;16.50;99.90;;;;;;4593530;19;20034;-27
2022/10/28 04:36:50;;;;;;;17.27;15.25;;;16.50;99.90;;;;;;4593315;19;20014;-27
2022/10/28 04:38:22;;;;;;;17.10;15.30;;;16.40;99.90;;;;;;4593715;19;20039;-28
2022/10/28 04:39:52;;;;;;;18.33;16.42;;;16.50;99.90;;;;;;4594301;19;20017;-27
2022/10/28 04:41:25;;;;;;;17.65;15.80;;;16.50;99.90;;;;;;4590491;19;20026;-27
2022/10/28 04:42:57;;;;;;;20.05;17.95;;;16.50;99.90;;;;;;4593576;19;20019;-28
2022/10/28 04:44:29;;;;;;;18.67;16.77;;;16.50;99.90;;;;;;4591922;19;20491;-27
2022/10/28 04:47:47;;;;;;;18.35;16.40;;;16.40;99.90;;;;;;4591095;19;20018;-27
2022/10/28 04:49:17;;;;;;;17.23;14.45;;;16.50;99.90;;;;;;4592987;19;20006;-27
2022/10/28 04:50:49;;;;;;;18.63;16.70;;;16.50;99.90;;;;;;4592931;19;20023;-27
2022/10/28 04:52:20;;;;;;;15.98;14.35;;;16.60;99.90;;;;;;4592618;19;20011;-28
2022/10/28 04:53:52;;;;;;;17.38;15.57;;;16.60;99.90;;;;;;4592810;19;20029;-27
2022/10/28 04:55:23;;;;;;;17.48;15.60;;;16.70;99.90;;;;;;4593516;19;20022;-27
2022/10/28 04:56:54;;;;;;;18.25;16.35;;;16.70;99.90;;;;;;4592426;19;20468;-27
2022/10/28 04:58:25;;;;;;;18.65;16.80;;;16.70;99.90;;;;;;4592782;19;20016;-26
2022/10/28 04:59:56;;;;;;;19.83;17.77;;;16.70;99.90;;;;;;4593050;19;20010;-27
2022/10/28 05:01:28;;;;;;;19.73;17.88;;;16.70;99.90;;;;;;4591626;19;20354;-28
2022/10/28 05:03:01;;;;;;;;;;;16.70;99.90;;;;;;4593571;19;20007;-27
2022/10/28 05:04:33;;;;;;;18.92;17.20;;;16.80;99.90;;;;;;4592743;19;20254;-27
2022/10/28 05:06:04;;;;;;;17.90;16.02;;;16.70;99.90;;;;;;4592588;19;20006;-27
2022/10/28 05:07:35;;;;;;;18.40;16.70;;;16.80;99.90;;;;;;4593110;19;20468;-27
2022/10/28 05:09:06;;;;;;;17.98;16.17;;;16.80;99.90;;;;;;4592378;19;20014;-27
2022/10/28 05:10:39;;;;;;;18.33;16.42;;;16.80;99.90;;;;;;4592412;19;20066;-26
2022/10/28 05:12:30;;;;;;;18.33;16.40;;;16.80;99.90;;;;;;4592572;19;20010;-27
2022/10/28 05:14:04;;;;;;;17.63;15.90;;;16.80;99.90;;;;;;4592624;19;20018;-27
2022/10/28 05:15:35;;;;;;;16.85;15.25;;;16.80;99.90;;;;;;4592057;19;20018;-27
2022/10/28 05:17:09;;;;;;;17.10;15.50;;;16.80;99.90;;;;;;4592735;19;20345;-27
2022/10/28 05:18:41;;;;;;;16.65;15.10;;;16.80;99.90;;;;;;4590818;19;20010;-27
2022/10/28 05:20:13;;;;;;;;;;;16.70;99.90;;;;;;4593122;19;20015;-27
2022/10/28 05:21:44;;;;;;;18.35;16.50;;;16.80;99.90;;;;;;4592083;19;20351;-27
2022/10/28 05:23:17;;;;;;;17.92;16.05;;;16.70;99.90;;;;;;4592083;19;20018;-27
2022/10/28 05:24:48;;;;;;;19.17;17.20;;;16.80;99.90;;;;;;4591854;19;20449;-28
2022/10/28 05:26:20;;;;;;;18.00;16.40;;;16.70;99.90;;;;;;4592170;19;20413;-27
2022/10/28 05:27:52;;;;;;;18.13;16.27;;;16.70;99.90;;;;;;4592010;19;20007;-27
2022/10/28 05:29:23;;;;;;;18.38;16.63;;;16.70;99.90;;;;;;4592074;19;20019;-27
2022/10/28 05:30:54;;;;;;;18.73;16.92;;;16.70;99.90;;;;;;4592231;19;20015;-27
2022/10/28 05:32:27;;;;;;;17.75;15.95;;;16.70;99.90;;;;;;4592008;19;20030;-27
2022/10/28 05:33:58;;;;;;;17.27;15.65;;;16.70;99.90;;;;;;4590718;19;20086;-27
2022/10/28 05:35:29;;;;;;;17.77;16.00;;;16.70;99.90;;;;;;4591107;19;20007;-26
2022/10/28 05:37:00;;;;;;;20.30;18.35;;;16.70;99.90;;;;;;4592158;19;20353;-27
2022/10/28 05:38:32;;;;;;;;;;;16.70;99.90;;;;;;4592554;19;20018;-27
2022/10/28 05:40:04;;;;;;;26.88;24.33;;;16.70;99.90;;;;;;4590288;19;19915;-27
2022/10/28 05:41:36;;;;;;;23.83;21.55;;;16.70;99.90;;;;;;4590227;19;20006;-27
2022/10/28 05:43:08;;;;;;;23.40;21.10;;;16.60;99.90;;;;;;4591066;19;20078;-27
2022/10/28 05:44:39;;;;;;;22.20;20.00;;;16.70;99.90;;;;;;4591187;19;20019;-28
2022/10/28 05:46:10;;;;;;;21.33;19.20;;;16.70;99.90;;;;;;4590636;19;20035;-26
2022/10/28 05:47:43;;;;;;;;;;;16.70;99.90;;;;;;4591337;19;20014;-26
2022/10/28 05:51:00;;;;;;;19.77;17.70;;;16.70;99.90;;;;;;4590279;19;19999;-27
2022/10/28 05:52:31;;;;;;;20.30;18.38;;;16.70;99.90;;;;;;4589254;19;20018;-27
2022/10/28 05:54:02;;;;;;;19.83;17.92;;;16.70;99.90;;;;;;4592020;19;20090;-27
2022/10/28 05:55:34;;;;;;;21.23;19.02;;;16.70;99.90;;;;;;4592218;19;20006;-26
2022/10/28 05:57:05;;;;;;;23.15;19.80;;;16.70;99.90;;;;;;4591682;19;20094;-26
2022/10/28 05:58:36;;;;;;;22.75;19.40;;;16.70;99.90;;;;;;4591258;19;20033;-26
2022/10/28 06:00:08;;;;;;;21.85;19.65;;;16.80;99.90;;;;;;4590142;19;20010;-26
2022/10/28 06:01:39;;;;;;;21.00;19.00;;;16.80;99.90;;;;;;4588716;19;20023;-26
2022/10/28 06:03:11;;;;;;;22.48;18.45;;;16.90;99.90;;;;;;4589855;19;20488;-27
2022/10/28 06:04:42;;;;;;;20.95;18.75;;;16.90;99.90;;;;;;4588204;19;20093;-27
2022/10/28 06:06:13;;;;;;;20.92;18.90;;;17.00;99.90;;;;;;4589602;19;20361;-27
2022/10/28 06:07:44;;;;;;;24.08;21.65;;;17.00;99.90;;;;;;4592142;19;20010;-27
2022/10/28 06:09:15;;;;;;;25.58;23.27;;;15.50;99.90;;;;;;4591676;19;20428;-27
2022/10/28 06:10:50;;;;;;;26.17;23.67;;;14.60;99.90;;;;;;4591151;19;20014;-27
2022/10/28 06:12:22;;;;;;;25.77;23.27;;;14.20;99.90;;;;;;4591251;19;20022;-27
2022/10/28 06:13:53;;;;;;;27.17;24.50;;;14.00;99.90;;;;;;4590614;19;20011;-27
2022/10/28 06:15:25;;;;;;;27.38;24.67;;;13.90;99.90;;;;;;4590087;19;20011;-27
2022/10/28 06:16:55;;;;;;;27.02;24.42;;;13.90;99.90;;;;;;4590300;19;20073;-27
2022/10/28 06:18:26;;;;;;;27.65;24.95;;;13.90;99.90;;;;;;4591386;19;20030;-27
2022/10/28 06:19:58;;;;;;;26.10;23.70;;;13.90;99.90;;;;;;4590784;19;20014;-27
2022/10/28 06:21:30;;;;;;;26.20;23.70;;;13.90;99.90;;;;;;4590261;19;20488;-26
2022/10/28 06:23:03;;;;;;;28.13;25.43;;;13.80;99.90;;;;;;4590836;19;20010;-27
2022/10/28 06:24:35;;;;;;;27.53;24.67;;;13.80;99.90;;;;;;4590891;19;20038;-27
2022/10/28 06:26:07;;;;;;;26.65;24.02;;;13.80;99.90;;;;;;4589889;19;20010;-27
2022/10/28 06:27:41;;;;;;;27.33;24.73;;;13.80;99.90;;;;;;4589778;19;20006;-26
2022/10/28 06:29:12;;;;;;;27.42;24.83;;;13.80;99.90;;;;;;4589675;19;20002;-27
2022/10/28 06:30:45;;;;;;;29.30;26.47;;;13.80;99.90;;;;;;4590130;19;20041;-27
2022/10/28 06:32:16;;;;;;;29.38;26.58;;;13.80;99.90;;;;;;4590866;19;20022;-26
2022/10/28 06:33:48;;;;;;;28.63;25.57;;;13.80;99.90;;;;;;4590723;19;20007;-26
2022/10/28 06:35:20;;;;;;;29.65;26.75;;;13.80;99.90;;;;;;4591440;19;20014;-25
2022/10/28 06:36:52;;;;;;;28.77;25.80;;;13.80;99.90;;;;;;4590535;19;20010;-26
2022/10/28 06:38:25;;;;;;;27.77;24.87;;;13.80;99.90;;;;;;4590571;19;20014;-27
2022/10/28 06:39:59;;;;;;;28.73;26.03;;;13.80;99.90;;;;;;4590141;19;20406;-26
2022/10/28 06:41:31;;;;;;;29.30;26.33;;;13.80;99.90;;;;;;4588534;19;20039;-27
2022/10/28 06:43:06;;;;;;;29.92;26.92;;;13.80;99.90;;;;;;4589877;19;20391;-26
2022/10/28 06:44:38;;;;;;;27.07;24.47;;;13.80;99.90;;;;;;4590725;19;20010;-27
2022/10/28 06:46:10;;;;;;;27.83;25.07;;;13.80;99.90;;;;;;4589932;19;20456;-27
2022/10/28 06:47:42;;;;;;;30.07;27.20;;;13.80;99.90;;;;;;4588030;19;20011;-27
2022/10/28 06:49:16;;;;;;;29.53;26.50;;;13.80;99.90;;;;;;4590208;19;20019;-26
2022/10/28 06:50:48;;;;;;;28.37;25.63;;;13.70;99.90;;;;;;4590419;19;20070;-26
2022/10/28 07:52:16;;;;;;;18.40;16.50;;;16.20;99.90;;;;;;4587587;19;20074;-26
2022/10/28 07:53:59;;;;;;;19.30;16.00;;;16.30;99.90;;;;;;4588959;19;20024;-26
2022/10/28 07:55:31;;;;;;;19.48;17.48;;;16.30;99.90;;;;;;4588858;19;20020;-26
2022/10/28 07:57:03;;;;;;;20.95;17.33;;;16.30;99.90;;;;;;4588498;19;20086;-27
2022/10/28 07:58:36;;;;;;;;;;;16.30;99.90;;;;;;4588940;19;20011;-26
2022/10/28 08:05:32;;;;;;;16.58;14.82;;;16.40;99.90;;;;;;4594431;19;19987;-26
2022/10/28 08:07:04;;;;;;;19.33;17.33;;;16.40;99.90;;;;;;4592499;19;20036;-25
2022/10/28 08:14:01;;;;;;;18.83;16.33;;;16.50;99.90;;;;;;4593573;19;20046;-26
2022/10/28 08:15:32;;;;;;;;;;;16.40;99.90;;;;;;4593777;19;20010;-26
2022/10/28 08:17:05;;;;;;;;;;;16.50;99.90;;;;;;4594003;19;19925;-26
2022/10/28 08:18:36;;;;;;;18.35;15.75;;;16.50;99.90;;;;;;4592115;19;19918;-26
2022/10/28 08:20:29;;;;;;;19.17;17.17;;;16.50;99.90;;;;;;4592198;19;20010;-26
2022/10/28 08:22:01;;;;;;;19.33;17.30;;;16.50;99.90;;;;;;4591843;19;20010;-27
2022/10/28 08:23:34;;;;;;;20.13;18.02;;;16.50;99.90;;;;;;4592648;19;20006;-27
2022/10/28 08:25:07;;;;;;;19.23;17.30;;;16.50;99.90;;;;;;4591536;19;20374;-26
2022/10/28 08:26:38;;;;;;;21.13;18.08;;;16.50;99.90;;;;;;4591971;19;20353;-27
2022/10/28 08:28:10;;;;;;;19.77;17.67;;;16.60;99.90;;;;;;4592835;19;20520;-26
2022/10/28 08:29:41;;;;;;;19.02;17.00;;;16.60;99.90;;;;;;4591789;19;20006;-26
2022/10/28 08:31:13;;;;;;;19.20;17.20;;;16.60;99.90;;;;;;4592461;19;20014;-27
2022/10/28 08:32:46;;;;;;;19.50;17.48;;;16.70;99.90;;;;;;4592182;19;20006;-26
2022/10/28 08:34:18;;;;;;;20.33;18.30;;;16.70;99.90;;;;;;4590826;19;20010;-27
2022/10/28 08:35:50;;;;;;;19.75;17.17;;;16.70;99.90;;;;;;4592424;19;20014;-27
2022/10/28 08:37:24;;;;;;;19.00;17.10;;;16.70;99.90;;;;;;4591697;19;20544;-27
2022/10/28 08:38:58;;;;;;;19.48;17.48;;;16.70;99.90;;;;;;4591274;19;20469;-27
2022/10/28 08:40:53;;;;;;;21.70;19.40;;;16.80;99.90;;;;;;4592577;19;20035;-28
2022/10/28 08:42:34;;;;;;;21.42;18.98;;;16.70;99.90;;;;;;4593484;19;20002;-26
2022/10/28 08:44:23;;;;;;;22.65;20.25;;;16.80;99.90;;;;;;4592827;19;20348;-26
2022/10/28 08:46:07;;;;;;;22.15;19.85;;;16.80;99.90;;;;;;4593110;19;20052;-26
2022/10/28 08:47:51;;;;;;;22.27;19.95;;;16.80;99.90;;;;;;4590163;19;20010;-26
2022/10/28 08:49:26;;;;;;;22.00;19.38;;;16.80;99.90;;;;;;4590457;19;20021;-26
2022/10/28 08:51:15;;;;;;;18.88;17.00;;;16.80;99.90;;;;;;4592180;19;20030;-27
2022/10/28 08:56:45;;;;;;;20.23;18.13;;;16.80;99.90;;;;;;4593227;19;20003;-25
2022/10/28 08:58:25;;;;;;;20.30;18.30;;;16.80;99.90;;;;;;4589703;19;20027;-26
2022/10/28 08:59:59;;;;;;;21.52;18.38;;;16.80;99.90;;;;;;4590828;19;20024;-27
2022/10/28 09:01:58;;;;;;;21.90;19.45;;;16.80;99.90;;;;;;4587980;19;20058;-26
2022/10/28 09:03:39;;;;;;;20.40;18.30;;;16.80;99.90;;;;;;4588779;19;20010;-25
2022/10/28 09:05:20;;;;;;;20.92;18.70;;;16.80;99.90;;;;;;4588620;19;20066;-27
2022/10/28 09:06:58;;;;;;;20.27;18.20;;;16.80;99.90;;;;;;4588618;19;20069;-28
2022/10/28 09:08:42;;;;;;;20.85;18.75;;;16.90;99.90;;;;;;4588068;19;20121;-27
2022/10/28 09:10:18;;;;;;;19.75;16.70;;;16.90;99.90;;;;;;4587730;19;20069;-26
2022/10/28 09:11:55;;;;;;;19.00;16.85;;;16.90;99.90;;;;;;4588144;19;20515;-27
2022/10/28 09:13:49;;;;;;;19.95;18.02;;;16.90;99.90;;;;;;4588525;19;20147;-28
2022/10/28 09:15:38;;;;;;;20.92;18.02;;;16.90;99.90;;;;;;4588148;19;20015;-27
2022/10/28 09:17:22;;;;;;;19.13;16.98;;;16.90;99.90;;;;;;4588878;19;20014;-26
2022/10/28 09:19:01;;;;;;;20.42;18.42;;;16.90;99.90;;;;;;4588247;19;20018;-27
2022/10/28 09:20:56;;;;;;;19.25;17.25;;;16.90;99.90;;;;;;4587269;19;20010;-28
2022/10/28 09:22:45;;;;;;;19.77;17.90;;;16.90;99.90;;;;;;4588074;19;20476;-26
2022/10/28 09:24:36;;;;;;;20.30;18.02;;;16.90;99.90;;;;;;4588388;19;20018;-27
2022/10/28 09:26:23;;;;;;;20.33;18.15;;;16.90;99.90;;;;;;4589128;19;20480;-27
2022/10/28 09:28:17;;;;;;;21.80;17.90;;;16.90;99.90;;;;;;4588377;19;20069;-26
2022/10/28 09:30:20;;;;;;;20.00;17.90;;;16.90;99.90;;;;;;4588370;19;20134;-26
2022/10/28 09:32:37;;;;;;;20.40;18.30;;;16.90;99.90;;;;;;4553366;19;20011;-28
2022/10/28 09:34:12;;;;;;;20.33;18.23;;;16.90;99.90;;;;;;4565042;19;20020;-28
2022/10/28 09:35:45;;;;;;;23.15;20.67;;;17.00;99.90;;;;;;4587371;19;20112;-28
2022/10/28 09:37:29;;;;;;;20.83;18.63;;;16.90;99.90;;;;;;4589406;19;20478;-27
2022/10/28 09:39:04;;;;;;;20.92;18.75;;;16.90;99.90;;;;;;4589791;19;20015;-27
2022/10/28 09:40:54;;;;;;;20.17;17.52;;;17.00;99.90;;;;;;4561565;19;20062;-27
2022/10/28 09:42:28;;;;;;;22.02;17.33;;;17.00;99.90;;;;;;4589459;19;20556;-27
2022/10/28 09:44:22;;;;;;;18.80;16.63;;;17.00;99.90;;;;;;4589214;19;20015;-27
2022/10/28 09:46:01;;;;;;;19.98;17.98;;;17.00;99.90;;;;;;4587074;19;20011;-27
2022/10/28 09:47:45;;;;;;;21.25;17.85;;;17.00;99.90;;;;;;4588548;19;20014;-28
2022/10/28 09:49:38;;;;;;;21.15;18.95;;;17.00;99.90;;;;;;4578873;19;20013;-28
2022/10/28 09:51:31;;;;;;;19.80;17.80;;;17.00;99.90;;;;;;4586565;19;20100;-27
2022/10/28 09:53:47;;;;;;;20.38;18.30;;;17.00;99.90;;;;;;4585074;19;20568;-26
2022/10/28 09:55:20;;;;;;;18.83;16.83;;;17.00;99.90;;;;;;4587717;19;20010;-26
2022/10/28 09:56:56;;;;;;;20.58;18.38;;;17.00;99.90;;;;;;4587138;19;20421;-27
2022/10/28 10:26:51;;;;;;;18.27;16.33;;;17.10;99.90;;;;;;4586773;19;20014;-26
2022/10/28 10:28:26;;;;;;;18.85;16.88;;;17.10;99.90;;;;;;4588056;19;20010;-27
2022/10/28 10:29:59;;;;;;;19.95;16.63;;;17.10;99.90;;;;;;4587939;19;20014;-27
2022/10/28 10:31:30;;;;;;;;;;;17.10;99.90;;;;;;4589119;19;20507;-27
2022/10/28 10:33:02;;;;;;;17.25;15.40;;;17.10;99.90;;;;;;4588006;19;20002;-26
2022/10/28 10:34:35;;;;;;;18.67;15.57;;;17.10;99.90;;;;;;4588062;19;20010;-26
2022/10/28 10:36:08;;;;;;;18.08;16.17;;;17.10;99.90;;;;;;4587336;19;20019;-27
2022/10/28 10:37:45;;;;;;;12.70;11.45;;;17.10;99.90;;;;;;4587532;19;20051;-27
2022/10/28 10:39:28;;;;;;;17.90;16.08;;;17.10;99.90;;;;;;4587027;19;20013;-26
2022/10/28 10:41:00;;;;;;;17.75;15.85;;;17.20;99.90;;;;;;4586792;19;20010;-27
2022/10/28 10:42:32;;;;;;;17.33;15.55;;;17.20;99.90;;;;;;4587089;19;20010;-26
2022/10/28 10:44:23;;;;;;;18.20;16.17;;;17.10;99.90;;;;;;4586897;19;20006;-26
2022/10/28 10:46:02;;;;;;;15.85;13.55;;;17.10;99.90;;;;;;4588529;19;20476;-26
2022/10/28 10:47:38;;;;;;;16.63;13.88;;;17.10;99.90;;;;;;4589006;19;20502;-26
2022/10/28 10:49:15;;;;;;;16.67;14.63;;;17.10;99.90;;;;;;4590390;19;20023;-27
2022/10/28 10:50:48;;;;;;;17.17;15.32;;;17.10;99.90;;;;;;4587712;19;20032;-27
2022/10/28 10:52:24;;;;;;;16.85;15.13;;;17.20;99.90;;;;;;4587351;19;20011;-28
2022/10/28 10:53:58;;;;;;;20.20;15.90;;;17.20;99.90;;;;;;4588583;19;20074;-27
2022/10/28 10:55:40;;;;;;;15.90;13.73;;;17.20;99.90;;;;;;4588683;19;20424;-27
2022/10/28 10:57:19;;;;;;;17.77;15.98;;;17.20;99.90;;;;;;4587162;19;20487;-27
2022/10/28 10:58:51;;;;;;;17.02;15.23;;;17.20;99.90;;;;;;4587212;19;20014;-28
2022/10/28 11:00:24;;;;;;;16.60;14.82;;;17.10;99.90;;;;;;4589509;19;20357;-27
2022/10/28 11:01:56;;;;;;;13.63;12.23;;;17.10;99.90;;;;;;4587885;19;20057;-28
2022/10/28 11:04:08;;;;;;;16.40;14.65;;;17.30;99.90;;;;;;4586991;19;20006;-27
2022/10/28 11:05:46;;;;;;;18.25;16.23;;;17.30;99.90;;;;;;4587578;19;20017;-26
2022/10/28 11:07:20;;;;;;;17.65;15.75;;;17.20;99.90;;;;;;4587842;19;20022;-27
2022/10/28 11:08:57;;;;;;;17.58;15.73;;;17.20;99.90;;;;;;4587508;19;20091;-26
2022/10/28 11:10:29;;;;;;;18.48;16.55;;;17.10;99.90;;;;;;4586177;19;20023;-26
2022/10/28 11:12:12;;;;;;;18.85;17.05;;;17.00;99.90;;;;;;4587747;19;20014;-27
2022/10/28 11:13:44;;;;;;;18.52;16.55;;;17.10;99.90;;;;;;4589532;19;20025;-27
2022/10/28 11:15:15;;;;;;;17.75;15.85;;;17.10;99.90;;;;;;4589217;19;20014;-27
2022/10/28 11:16:53;;;;;;;19.15;16.80;;;17.10;99.90;;;;;;4589136;19;20019;-27
2022/10/28 11:18:28;;;;;;;19.05;16.50;;;17.10;99.90;;;;;;4590095;19;20016;-27
2022/10/28 11:20:47;;;;;;;21.40;17.58;;;17.10;99.90;;;;;;4589578;19;20021;-27
2022/10/28 11:22:40;;;;;;;25.58;18.98;;;17.10;99.90;;;;;;4585522;19;20013;-28
2022/10/28 11:24:34;;;;;;;22.83;20.20;;;17.10;99.90;;;;;;4586009;19;20536;-27
2022/10/28 11:31:31;;;;;;;22.15;18.77;;;17.10;99.90;;;;;;4563335;19;20053;-27
2022/10/28 11:33:13;;;;;;;20.00;17.45;;;17.10;99.90;;;;;;4586670;19;20118;-26
2022/10/28 11:35:12;;;;;;;21.35;18.08;;;17.10;99.90;;;;;;4590688;19;20043;-25
2022/10/28 11:36:53;;;;;;;22.60;17.98;;;17.20;99.90;;;;;;4591382;19;20006;-27
2022/10/28 11:38:51;;;;;;;20.98;17.83;;;17.10;99.90;;;;;;4591523;19;20014;-26
2022/10/28 11:41:14;;;;;;;18.55;16.52;;;17.10;99.90;;;;;;4591760;19;20018;-26
2022/10/28 11:43:09;;;;;;;18.70;16.45;;;17.10;99.90;;;;;;4591595;19;20346;-26
2022/10/28 11:44:40;;;;;;;18.85;16.85;;;17.20;99.90;;;;;;4591427;19;20011;-26
2022/10/28 11:46:18;;;;;;;19.60;17.60;;;17.10;99.90;;;;;;4591712;19;20002;-25
2022/10/28 11:47:52;;;;;;;19.35;17.35;;;17.00;99.90;;;;;;4590549;19;20094;-25
2022/10/28 11:49:44;;;;;;;18.48;16.58;;;17.00;99.90;;;;;;4593327;19;20360;-26
2022/10/28 11:51:53;;;;;;;19.60;16.45;;;17.00;99.90;;;;;;4590845;19;20011;-26
2022/10/28 11:53:56;;;;;;;20.55;17.55;;;17.00;99.90;;;;;;4591643;19;20545;-26
2022/10/28 11:56:07;;;;;;;19.35;16.65;;;17.00;99.90;;;;;;4591197;19;20014;-26
2022/10/28 11:58:03;;;;;;;18.13;16.20;;;17.00;99.90;;;;;;4590757;19;20043;-26
2022/10/28 11:59:59;;;;;;;17.48;15.70;;;17.00;99.90;;;;;;4590999;19;20115;-26
2022/10/28 12:01:47;;;;;;;17.60;15.68;;;17.10;99.90;;;;;;4589291;19;20022;-27
2022/10/28 12:03:32;;;;;;;18.38;16.33;;;17.10;99.90;;;;;;4590714;19;20011;-26
2022/10/28 12:05:34;;;;;;;19.42;16.80;;;17.10;99.90;;;;;;4591651;19;20060;-26
2022/10/28 12:07:28;;;;;;;20.25;17.77;;;17.10;99.90;;;;;;4591536;19;20484;-27
2022/10/28 12:09:07;;;;;;;19.80;17.70;;;17.10;99.90;;;;;;4591094;19;20027;-26
2022/10/28 12:11:02;;;;;;;21.27;18.63;;;17.10;99.90;;;;;;4591673;19;20022;-25
2022/10/28 12:12:51;;;;;;;22.00;19.63;;;17.00;99.90;;;;;;4591969;19;20011;-26
2022/10/28 12:14:53;;;;;;;20.52;18.42;;;17.00;99.90;;;;;;4590933;19;20524;-28
2022/10/28 12:16:30;;;;;;;20.60;18.40;;;17.00;99.90;;;;;;4589244;19;20015;-27
2022/10/28 12:18:10;;;;;;;20.38;18.10;;;17.00;99.90;;;;;;4590851;19;20037;-27
2022/10/28 12:19:52;;;;;;;22.05;18.90;;;17.00;99.90;;;;;;4591476;19;20025;-26
2022/10/28 12:21:33;;;;;;;20.65;17.98;;;17.00;99.90;;;;;;4589583;19;20014;-27
2022/10/28 12:23:12;;;;;;;19.85;16.92;;;17.10;99.90;;;;;;4590651;19;20090;-25
2022/10/28 12:24:43;;;;;;;17.95;16.05;;;17.00;99.90;;;;;;4589753;19;20019;-27
2022/10/28 12:26:16;;;;;;;21.88;17.17;;;17.10;99.90;;;;;;4589868;19;20014;-26
2022/10/28 12:27:49;;;;;;;20.55;18.25;;;17.00;99.90;;;;;;4592430;19;20014;-26
2022/10/28 12:29:25;;;;;;;20.83;17.35;;;17.00;99.90;;;;;;4593165;19;20365;-27
2022/10/28 12:30:57;;;;;;;19.67;17.58;;;17.00;99.90;;;;;;4591923;19;20011;-26
2022/10/28 12:34:17;;;;;;;18.50;16.60;;;17.00;99.90;;;;;;4592543;19;19999;-27
2022/10/28 12:36:11;;;;;;;22.98;18.50;;;17.00;99.90;;;;;;4590115;19;20022;-27
2022/10/28 12:38:05;;;;;;;19.15;17.15;;;17.10;99.90;;;;;;4589494;19;20014;-27
2022/10/28 12:39:46;;;;;;;19.65;17.60;;;17.00;99.90;;;;;;4590452;19;20018;-27
2022/10/28 12:41:23;;;;;;;18.17;16.23;;;17.00;99.90;;;;;;4589233;19;20030;-27
2022/10/28 12:43:19;;;;;;;18.15;16.25;;;17.00;99.90;;;;;;4590102;19;20032;-27
2022/10/28 12:44:51;;;;;;;20.00;17.30;;;17.10;99.90;;;;;;4589839;19;20046;-27
2022/10/28 12:46:22;;;;;;;18.55;16.63;;;17.00;99.90;;;;;;4588225;19;20025;-27
2022/10/28 12:48:13;;;;;;;19.90;17.80;;;17.00;99.90;;;;;;4588633;19;20006;-27
2022/10/28 12:50:03;;;;;;;20.27;18.13;;;17.10;99.90;;;;;;4589914;19;20011;-28
2022/10/28 12:51:39;;;;;;;22.23;19.58;;;17.10;99.90;;;;;;4589962;19;20056;-28
2022/10/28 12:53:37;;;;;;;21.88;19.65;;;17.10;99.90;;;;;;4588160;19;20010;-27
2022/10/28 12:55:27;;;;;;;23.13;20.73;;;17.10;99.90;;;;;;4590280;19;20048;-27
2022/10/28 12:57:12;;;;;;;23.58;19.48;;;17.10;99.90;;;;;;4590292;19;20579;-27
2022/10/28 12:58:58;;;;;;;22.42;20.08;;;17.10;99.90;;;;;;4591146;19;20014;-27
2022/10/28 13:00:33;;;;;;;24.15;20.40;;;17.10;99.90;;;;;;4591239;19;20024;-27
2022/10/28 13:02:18;;;;;;;20.50;18.30;;;17.10;99.90;;;;;;4590475;19;20014;-27
2022/10/28 13:03:49;;;;;;;21.55;19.20;;;17.00;99.90;;;;;;4589680;19;20011;-26
2022/10/28 13:05:28;;;;;;;21.27;18.13;;;17.00;99.90;;;;;;4589567;19;20014;-27
2022/10/28 13:07:10;;;;;;;21.02;18.20;;;17.10;99.90;;;;;;4590162;19;20365;-27
2022/10/28 13:09:01;;;;;;;21.02;18.70;;;17.00;99.90;;;;;;4589909;19;20011;-27
2022/10/28 13:10:41;;;;;;;21.00;18.45;;;17.00;99.90;;;;;;4590091;19;20061;-26
2022/10/28 13:12:46;;;;;;;19.25;17.25;;;17.00;99.90;;;;;;4589584;19;20010;-27
2022/10/28 13:14:44;;;;;;;18.35;16.45;;;17.00;99.90;;;;;;4587987;19;20477;-27
2022/10/28 13:16:36;;;;;;;18.58;16.52;;;17.10;99.90;;;;;;4587848;19;20015;-26
2022/10/28 13:18:41;;;;;;;18.08;16.20;;;17.00;99.90;;;;;;4588213;19;20021;-27
2022/10/28 13:20:18;;;;;;;19.80;16.20;;;17.00;99.90;;;;;;4589478;19;20018;-27
2022/10/28 13:22:19;;;;;;;16.90;12.60;;;17.00;99.90;;;;;;4588201;19;20070;-27
2022/10/28 13:23:59;;;;;;;19.33;16.35;;;17.10;99.90;;;;;;4589644;19;19999;-27
2022/10/28 13:25:59;;;;;;;18.17;16.25;;;17.20;99.90;;;;;;4589379;19;20017;-27
2022/10/28 13:27:32;;;;;;;19.25;17.25;;;17.10;99.90;;;;;;4590927;19;20420;-27
2022/10/28 13:29:06;;;;;;;19.48;15.98;;;17.10;99.90;;;;;;4588983;19;20172;-27
2022/10/28 13:30:37;;;;;;;17.58;15.23;;;17.10;99.90;;;;;;4589236;19;20011;-27
2022/10/28 13:32:28;;;;;;;18.40;16.30;;;17.10;99.90;;;;;;4590048;19;20014;-27
2022/10/28 14:18:21;;;;;;;16.63;14.15;;;16.90;99.90;;;;;;4589709;19;20402;-27
2022/10/28 14:19:53;;;;;;;17.48;15.68;;;16.90;99.90;;;;;;4589962;19;20030;-27
2022/10/28 14:21:36;;;;;;;16.30;14.60;;;16.90;99.90;;;;;;4588343;19;20006;-27
2022/10/28 14:23:20;;;;;;;18.20;14.75;;;16.90;99.90;;;;;;4591260;19;20014;-27
2022/10/28 14:24:52;;;;;;;16.15;14.20;;;16.90;99.90;;;;;;4589177;19;20025;-27
2022/10/28 14:26:24;;;;;;;17.83;15.77;;;16.90;99.90;;;;;;4589164;19;20003;-27
2022/10/28 14:27:55;;;;;;;16.90;14.20;;;16.90;99.90;;;;;;4591616;19;20026;-27
2022/10/28 14:29:28;;;;;;;16.35;14.60;;;16.90;99.90;;;;;;4589302;19;20503;-27
2022/10/28 14:31:11;;;;;;;20.50;16.33;;;16.90;99.90;;;;;;4590341;19;20022;-27
2022/10/28 14:32:58;;;;;;;19.08;14.45;;;16.90;99.90;;;;;;4589775;19;20344;-27
2022/10/28 14:34:35;;;;;;;16.02;14.32;;;16.90;99.90;;;;;;4591032;19;20007;-27
2022/10/28 14:36:13;;;;;;;16.83;14.35;;;16.90;99.90;;;;;;4587538;19;20022;-27
2022/10/28 14:38:04;;;;;;;15.98;13.77;;;17.00;99.90;;;;;;4588252;19;20015;-27
2022/10/28 14:39:44;;;;;;;15.48;13.30;;;17.00;99.90;;;;;;4586741;19;20055;-27
2022/10/28 14:41:36;;;;;;;19.42;16.52;;;17.10;99.90;;;;;;4588539;19;20373;-27
2022/10/28 14:43:31;;;;;;;19.75;17.20;;;17.10;99.90;;;;;;4586646;19;20057;-27
2022/10/28 14:45:23;;;;;;;18.67;16.63;;;17.20;99.90;;;;;;4587657;19;20105;-27
2022/10/28 14:47:21;;;;;;;19.75;15.43;;;17.20;99.90;;;;;;4587650;19;20006;-25
2022/10/28 14:49:12;;;;;;;16.10;14.10;;;17.20;99.90;;;;;;4588958;19;20019;-26
2022/10/28 14:50:50;;;;;;;19.25;15.10;;;17.20;99.90;;;;;;4588366;19;20014;-26
2022/10/28 14:52:24;;;;;;;18.45;15.00;;;17.20;99.90;;;;;;4588280;19;20017;-25
2022/10/28 14:53:57;;;;;;;19.20;15.90;;;17.20;99.90;;;;;;4588251;19;20029;-27
2022/10/28 14:55:31;;;;;;;17.85;15.55;;;17.20;99.90;;;;;;4587645;19;20021;-26
2022/10/28 14:57:03;;;;;;;18.27;16.38;;;17.20;99.90;;;;;;4587156;19;20010;-26
2022/10/28 14:58:36;;;;;;;22.45;17.48;;;17.20;99.90;;;;;;4587398;19;20035;-27
2022/10/28 15:00:18;;;;;;;22.65;16.95;;;17.20;99.90;;;;;;4587011;19;20022;-27
2022/10/28 15:01:59;;;;;;;18.85;16.85;;;17.20;99.90;;;;;;4586095;19;20031;-27